createdAt,value
2022-12-04T00:02:16.496Z,102367.22
2022-12-04T00:04:43.827Z,102372.97
2022-12-04T00:07:12.192Z,102369.66
2022-12-04T00:09:39.718Z,102367.22
2022-12-04T00:12:08.040Z,102365.44
2022-12-04T00:14:49.057Z,102350.47
2022-12-04T00:17:26.405Z,102363.00
2022-12-04T00:19:56.768Z,102358.63
2022-12-04T00:22:25.826Z,102366.25
2022-12-04T00:24:53.118Z,102373.59
2022-12-04T00:27:20.323Z,102358.53
2022-12-04T00:29:47.590Z,102359.38
2022-12-04T00:32:14.783Z,102365.84
2022-12-04T00:34:43.602Z,102359.31
2022-12-04T00:37:11.711Z,102354.34
2022-12-04T00:39:38.935Z,102355.88
2022-12-04T00:42:06.303Z,102358.22
2022-12-04T00:44:33.766Z,102356.53
2022-12-04T00:47:01.101Z,102354.00
2022-12-04T00:49:28.455Z,102353.03
2022-12-04T00:51:57.331Z,102357.81
2022-12-04T00:54:24.667Z,102360.22
2022-12-04T00:56:52.054Z,102352.59
2022-12-04T00:59:19.237Z,102359.38
2022-12-04T01:01:46.565Z,102357.66
2022-12-04T01:04:13.915Z,102357.59
2022-12-04T01:06:41.394Z,102360.88
2022-12-04T01:09:10.114Z,102357.63
2022-12-04T01:11:38.666Z,102369.22
2022-12-04T01:14:06.041Z,102372.59
2022-12-04T01:16:35.920Z,102362.38
2022-12-04T01:19:04.273Z,102376.69
2022-12-04T01:21:31.641Z,102369.28
2022-12-04T01:23:59.855Z,102366.03
2022-12-04T01:26:28.647Z,102366.00
2022-12-04T01:28:55.883Z,102372.53
2022-12-04T01:31:24.045Z,102372.47
2022-12-04T01:33:51.777Z,102374.09
2022-12-04T01:36:21.936Z,102378.16
2022-12-04T01:38:49.792Z,102388.97
2022-12-04T01:41:20.325Z,102372.22
2022-12-04T01:44:14.225Z,102385.50
2022-12-04T01:46:43.005Z,102388.78
2022-12-04T01:49:12.958Z,102385.28
2022-12-04T01:51:44.335Z,102389.50
2022-12-04T01:54:17.486Z,102385.31
2022-12-04T01:56:49.213Z,102385.28
2022-12-04T01:59:21.908Z,102387.66
2022-12-04T02:01:54.859Z,102364.91
2022-12-04T02:04:22.224Z,102387.59
2022-12-04T02:06:49.507Z,102366.66
2022-12-04T02:09:23.026Z,102379.19
2022-12-04T02:12:00.771Z,102378.38
2022-12-04T02:14:39.119Z,102386.63
2022-12-04T02:17:17.052Z,102383.22
2022-12-04T02:20:11.312Z,102384.81
2022-12-04T02:23:20.572Z,102383.88
2022-12-04T02:25:54.834Z,102374.81
2022-12-04T02:28:27.446Z,102376.56
2022-12-04T02:30:59.839Z,102360.53
2022-12-04T02:33:31.699Z,102373.63
2022-12-04T02:36:04.658Z,102387.81
2022-12-04T02:38:35.957Z,102382.75
2022-12-04T02:41:09.947Z,102387.50
2022-12-04T02:43:45.929Z,102383.47
2022-12-04T02:46:18.712Z,102379.22
2022-12-04T02:48:49.769Z,102387.50
2022-12-04T02:51:20.781Z,102387.44
2022-12-04T02:53:52.443Z,102380.44
2022-12-04T02:56:24.655Z,102394.56
2022-12-04T02:58:56.695Z,102406.88
2022-12-04T03:01:30.935Z,102400.41
2022-12-04T03:04:02.164Z,102408.00
2022-12-04T03:06:34.211Z,102393.09
2022-12-04T03:09:06.535Z,102403.72
2022-12-04T03:11:37.771Z,102403.56
2022-12-04T03:14:12.694Z,102404.31
2022-12-04T03:16:42.074Z,102400.16
2022-12-04T03:19:14.490Z,102402.63
2022-12-04T03:21:50.179Z,102390.97
2022-12-04T03:24:24.037Z,102397.53
2022-12-04T03:26:59.320Z,102399.19
2022-12-04T03:29:33.873Z,102394.22
2022-12-04T03:32:09.947Z,102394.09
2022-12-04T03:34:43.892Z,102403.91
2022-12-04T03:37:15.912Z,102405.53
2022-12-04T03:39:51.593Z,102397.19
2022-12-04T03:42:23.379Z,102400.47
2022-12-04T03:45:00.889Z,102406.25
2022-12-04T03:47:36.301Z,102408.72
2022-12-04T03:50:09.909Z,102410.34
2022-12-04T03:52:40.564Z,102416.06
2022-12-04T03:55:13.768Z,102408.50
2022-12-04T03:57:44.904Z,102412.53
2022-12-04T04:00:16.601Z,102408.38
2022-12-04T04:02:48.410Z,102408.44
2022-12-04T04:05:18.024Z,102412.38
2022-12-04T04:07:50.172Z,102394.06
2022-12-04T04:10:20.171Z,102413.22
2022-12-04T04:13:14.375Z,102418.19
2022-12-04T04:16:07.405Z,102409.69
2022-12-04T04:18:53.479Z,102427.78
2022-12-04T04:21:44.176Z,102406.63
2022-12-04T04:24:22.220Z,102419.41
2022-12-04T04:26:49.777Z,102416.13
2022-12-04T04:29:17.132Z,102426.84
2022-12-04T04:31:53.142Z,102422.59
2022-12-04T04:34:27.326Z,102433.41
2022-12-04T04:36:59.550Z,102417.34
2022-12-04T04:39:34.495Z,102425.69
2022-12-04T04:42:13.122Z,102431.56
2022-12-04T04:44:45.872Z,102430.94
2022-12-04T04:47:21.978Z,102433.34
2022-12-04T04:49:52.434Z,102440.84
2022-12-04T04:52:21.978Z,102430.81
2022-12-04T04:54:49.499Z,102433.25
2022-12-04T04:57:27.278Z,102434.81
2022-12-04T04:59:54.859Z,102438.84
2022-12-04T05:02:25.878Z,102446.34
2022-12-04T05:04:53.237Z,102446.34
2022-12-04T05:07:20.620Z,102452.91
2022-12-04T05:09:47.936Z,102448.19
2022-12-04T05:12:15.553Z,102448.91
2022-12-04T05:14:42.859Z,102437.22
2022-12-04T05:17:12.829Z,102445.63
2022-12-04T05:19:54.483Z,102452.13
2022-12-04T05:22:25.198Z,102446.34
2022-12-04T05:24:53.478Z,102441.34
2022-12-04T05:27:21.194Z,102435.56
2022-12-04T05:29:48.503Z,102443.88
2022-12-04T05:32:15.948Z,102455.44
2022-12-04T05:34:44.882Z,102451.34
2022-12-04T05:37:12.151Z,102457.06
2022-12-04T05:39:39.601Z,102455.38
2022-12-04T05:42:07.093Z,102460.41
2022-12-04T05:44:34.447Z,102474.38
2022-12-04T05:47:01.977Z,102460.41
2022-12-04T05:49:29.960Z,102461.34
2022-12-04T05:51:58.636Z,102464.72
2022-12-04T05:54:26.178Z,102469.69
2022-12-04T05:56:53.750Z,102474.63
2022-12-04T05:59:20.979Z,102462.28
2022-12-04T06:01:48.214Z,102468.22
2022-12-04T06:04:15.815Z,102468.44
2022-12-04T06:06:43.036Z,102462.06
2022-12-04T06:09:12.159Z,102466.38
2022-12-04T06:11:41.035Z,102473.97
2022-12-04T06:14:11.940Z,102473.63
2022-12-04T06:16:41.444Z,102467.84
2022-12-04T06:19:11.501Z,102466.13
2022-12-04T06:21:40.825Z,102444.47
2022-12-04T06:24:09.100Z,102474.69
2022-12-04T06:26:47.593Z,102475.59
2022-12-04T06:29:25.478Z,102478.09
2022-12-04T06:31:52.744Z,102480.59
2022-12-04T06:34:20.250Z,102474.72
2022-12-04T06:36:47.598Z,102483.63
2022-12-04T06:39:18.667Z,102477.53
2022-12-04T06:41:47.944Z,102491.97
2022-12-04T06:44:15.766Z,102483.56
2022-12-04T06:46:46.821Z,102476.69
2022-12-04T06:49:14.604Z,102488.19
2022-12-04T06:51:41.840Z,102486.66
2022-12-04T06:54:10.603Z,102481.75
2022-12-04T06:56:37.906Z,102489.34
2022-12-04T06:59:06.987Z,102474.38
2022-12-04T07:01:35.440Z,102497.50
2022-12-04T07:04:04.717Z,102482.50
2022-12-04T07:06:34.498Z,102473.13
2022-12-04T07:09:04.051Z,102489.28
2022-12-04T07:11:31.624Z,102489.53
2022-12-04T07:13:58.976Z,102491.38
2022-12-04T07:16:34.015Z,102480.53
2022-12-04T07:19:04.239Z,102505.75
2022-12-04T07:21:32.295Z,102514.00
2022-12-04T07:24:01.487Z,102511.63
2022-12-04T07:26:29.764Z,102510.91
2022-12-04T07:28:58.278Z,102507.63
2022-12-04T07:31:29.176Z,102505.31
2022-12-04T07:33:57.620Z,102512.78
2022-12-04T07:36:26.316Z,102497.09
2022-12-04T07:38:55.716Z,102515.09
2022-12-04T07:41:23.571Z,102518.13
2022-12-04T07:43:51.262Z,102523.69
2022-12-04T07:46:20.758Z,102511.69
2022-12-04T07:48:49.496Z,102526.13
2022-12-04T07:51:19.386Z,102528.72
2022-12-04T07:53:46.911Z,102531.28
2022-12-04T07:56:15.507Z,102505.69
2022-12-04T07:58:43.429Z,102525.13
2022-12-04T08:01:13.094Z,102522.72
2022-12-04T08:03:47.096Z,102507.31
2022-12-04T08:06:18.421Z,102507.84
2022-12-04T08:08:46.247Z,102517.66
2022-12-04T08:11:15.994Z,102502.09
2022-12-04T08:13:43.308Z,102518.00
2022-12-04T08:16:12.788Z,102515.75
2022-12-04T08:18:40.526Z,102518.47
2022-12-04T08:21:10.053Z,102512.75
2022-12-04T08:23:40.350Z,102516.09
2022-12-04T08:26:08.943Z,102515.53
2022-12-04T08:28:37.056Z,102515.00
2022-12-04T08:31:05.299Z,102515.84
2022-12-04T08:33:33.096Z,102501.78
2022-12-04T08:36:00.699Z,102509.28
2022-12-04T08:38:30.962Z,102520.94
2022-12-04T08:41:01.805Z,102518.34
2022-12-04T08:43:29.214Z,102519.22
2022-12-04T08:45:57.393Z,102513.59
2022-12-04T08:48:24.951Z,102518.03
2022-12-04T08:50:52.288Z,102519.03
2022-12-04T08:53:19.619Z,102517.66
2022-12-04T08:55:46.899Z,102516.16
2022-12-04T08:58:15.547Z,102514.69
2022-12-04T09:00:43.481Z,102514.75
2022-12-04T09:03:13.914Z,102508.91
2022-12-04T09:05:41.730Z,102508.00
2022-12-04T09:08:09.048Z,102507.34
2022-12-04T09:10:36.972Z,102501.72
2022-12-04T09:13:05.806Z,102489.22
2022-12-04T09:15:35.205Z,102498.44
2022-12-04T09:18:02.524Z,102503.53
2022-12-04T09:20:29.822Z,102508.66
2022-12-04T09:23:05.264Z,102490.31
2022-12-04T09:25:35.963Z,102496.38
2022-12-04T09:28:04.150Z,102498.94
2022-12-04T09:30:31.379Z,102494.97
2022-12-04T09:33:00.076Z,102497.50
2022-12-04T09:35:27.457Z,102495.19
2022-12-04T09:37:54.849Z,102492.19
2022-12-04T09:40:30.680Z,102494.91
2022-12-04T09:43:09.319Z,102494.84
2022-12-04T09:45:46.922Z,102497.25
2022-12-04T09:48:18.746Z,102499.69
2022-12-04T09:50:48.637Z,102482.22
2022-12-04T09:53:19.598Z,102496.22
2022-12-04T09:55:54.659Z,102496.25
2022-12-04T09:58:26.854Z,102493.78
2022-12-04T10:00:56.742Z,102496.28
2022-12-04T10:03:28.372Z,102490.41
2022-12-04T10:06:04.974Z,102480.41
2022-12-04T10:08:35.688Z,102478.00
2022-12-04T10:11:12.891Z,102476.41
2022-12-04T10:13:54.708Z,102482.22
2022-12-04T10:16:28.493Z,102481.31
2022-12-04T10:19:08.828Z,102465.41
2022-12-04T10:21:50.671Z,102478.97
2022-12-04T10:24:29.581Z,102465.81
2022-12-04T10:27:00.132Z,102478.34
2022-12-04T10:29:30.971Z,102460.06
2022-12-04T10:32:05.412Z,102468.28
2022-12-04T10:34:34.502Z,102469.16
2022-12-04T10:37:12.051Z,102462.72
2022-12-04T10:39:44.802Z,102466.03
2022-12-04T10:42:21.523Z,102465.03
2022-12-04T10:44:48.926Z,102465.03
2022-12-04T10:47:16.713Z,102465.16
2022-12-04T10:49:45.570Z,102457.63
2022-12-04T10:52:15.413Z,102456.84
2022-12-04T10:54:48.486Z,102456.00
2022-12-04T10:57:16.370Z,102453.50
2022-12-04T10:59:50.398Z,102458.63
2022-12-04T11:02:22.364Z,102465.25
2022-12-04T11:04:57.113Z,102441.72
2022-12-04T11:07:27.206Z,102457.59
2022-12-04T11:09:57.295Z,102452.66
2022-12-04T11:12:25.039Z,102454.28
2022-12-04T11:15:03.953Z,102456.81
2022-12-04T11:17:31.705Z,102461.84
2022-12-04T11:20:01.801Z,102460.25
2022-12-04T11:22:32.082Z,102457.91
2022-12-04T11:24:59.924Z,102456.38
2022-12-04T11:27:32.498Z,102459.72
2022-12-04T11:30:02.748Z,102453.84
2022-12-04T11:32:35.043Z,102453.69
2022-12-04T11:35:12.744Z,102446.88
2022-12-04T11:37:45.145Z,102442.78
2022-12-04T11:40:19.154Z,102442.81
2022-12-04T11:42:58.573Z,102436.19
2022-12-04T11:45:25.916Z,102432.88
2022-12-04T11:47:55.397Z,102442.81
2022-12-04T11:50:30.641Z,102425.19
2022-12-04T11:53:11.102Z,102426.75
2022-12-04T11:55:48.981Z,102426.72
2022-12-04T11:58:32.277Z,102425.00
2022-12-04T12:01:14.051Z,102424.09
2022-12-04T12:03:50.046Z,102426.50
2022-12-04T12:06:32.000Z,102431.50
2022-12-04T12:09:11.998Z,102410.59
2022-12-04T12:11:41.387Z,102437.34
2022-12-04T12:14:16.444Z,102436.47
2022-12-04T12:16:56.476Z,102426.44
2022-12-04T12:19:44.319Z,102403.84
2022-12-04T12:22:27.290Z,102415.69
2022-12-04T12:25:06.148Z,102412.31
2022-12-04T12:27:50.602Z,102423.94
2022-12-04T12:30:20.213Z,102415.66
2022-12-04T12:33:00.143Z,102420.50
2022-12-04T12:35:30.169Z,102425.59
2022-12-04T12:38:02.422Z,102426.34
2022-12-04T12:40:34.154Z,102425.25
2022-12-04T12:43:06.043Z,102421.91
2022-12-04T12:45:43.108Z,102427.63
2022-12-04T12:48:25.649Z,102428.38
2022-12-04T12:51:22.081Z,102425.72
2022-12-04T12:53:51.555Z,102423.19
2022-12-04T12:56:23.143Z,102415.50
2022-12-04T12:58:54.447Z,102439.56
2022-12-04T13:01:27.072Z,102419.13
2022-12-04T13:04:00.407Z,102437.31
2022-12-04T13:06:30.335Z,102445.34
2022-12-04T13:09:07.086Z,102443.53
2022-12-04T13:11:34.543Z,102435.91
2022-12-04T13:14:03.805Z,102440.59
2022-12-04T13:16:36.835Z,102457.06
2022-12-04T13:19:10.293Z,102441.13
2022-12-04T13:21:42.593Z,102443.53
2022-12-04T13:24:56.707Z,102435.94
2022-12-04T13:27:35.024Z,102438.34
2022-12-04T13:30:14.560Z,102434.88
2022-12-04T13:33:23.493Z,102449.03
2022-12-04T13:36:30.480Z,102444.59
2022-12-04T13:39:27.291Z,102452.69
2022-12-04T13:42:00.512Z,102449.28
2022-12-04T13:44:28.731Z,102444.22
2022-12-04T13:47:00.235Z,102416.28
2022-12-04T13:49:30.131Z,102446.34
2022-12-04T13:51:59.325Z,102446.34
2022-12-04T13:54:31.944Z,102442.84
2022-12-04T13:57:19.960Z,102435.06
2022-12-04T13:59:49.004Z,102449.50
2022-12-04T14:02:28.905Z,102442.75
2022-12-04T14:05:00.194Z,102449.22
2022-12-04T14:07:31.857Z,102425.69
2022-12-04T14:10:04.902Z,102432.41
2022-12-04T14:12:38.919Z,102431.38
2022-12-04T14:15:08.900Z,102440.47
2022-12-04T14:17:38.584Z,102442.09
2022-12-04T14:20:10.323Z,102442.03
2022-12-04T14:22:44.319Z,102432.00
2022-12-04T14:25:34.415Z,102430.31
2022-12-04T14:28:13.518Z,102440.09
2022-12-04T14:30:41.390Z,102431.69
2022-12-04T14:33:12.193Z,102442.28
2022-12-04T14:35:45.934Z,102415.47
2022-12-04T14:38:38.140Z,102448.69
2022-12-04T14:41:05.990Z,102445.34
2022-12-04T14:43:39.821Z,102430.34
2022-12-04T14:46:14.242Z,102442.56
2022-12-04T14:48:50.375Z,102441.69
2022-12-04T14:51:27.613Z,102434.97
2022-12-04T14:54:03.607Z,102444.00
2022-12-04T14:56:45.874Z,102419.75
2022-12-04T14:59:17.565Z,102439.75
2022-12-04T15:01:47.447Z,102450.50
2022-12-04T15:04:23.749Z,102435.66
2022-12-04T15:06:56.829Z,102433.78
2022-12-04T15:09:46.572Z,102442.09
2022-12-04T15:12:36.506Z,102439.38
2022-12-04T15:15:14.107Z,102437.53
2022-12-04T15:17:41.405Z,102442.63
2022-12-04T15:20:15.965Z,102442.50
2022-12-04T15:22:43.610Z,102435.72
2022-12-04T15:25:22.894Z,102420.56
2022-12-04T15:27:53.327Z,102424.06
2022-12-04T15:30:24.207Z,102436.44
2022-12-04T15:32:53.650Z,102433.91
2022-12-04T15:35:24.650Z,102435.56
2022-12-04T15:37:52.288Z,102437.97
2022-12-04T15:40:22.470Z,102413.59
2022-12-04T15:42:50.107Z,102434.38
2022-12-04T15:45:31.751Z,102421.56
2022-12-04T15:47:59.571Z,102431.69
2022-12-04T15:50:28.778Z,102432.97
2022-12-04T15:53:00.474Z,102431.47
2022-12-04T15:55:30.684Z,102438.00
2022-12-04T15:58:02.301Z,102418.69
2022-12-04T16:00:34.302Z,102443.84
2022-12-04T16:03:03.916Z,102442.22
2022-12-04T16:05:35.637Z,102438.06
2022-12-04T16:08:21.875Z,102442.16
2022-12-04T16:10:57.936Z,102448.94
2022-12-04T16:13:34.256Z,102447.25
2022-12-04T16:16:06.765Z,102437.34
2022-12-04T16:18:34.919Z,102434.00
2022-12-04T16:21:02.297Z,102443.13
2022-12-04T16:23:29.633Z,102440.66
2022-12-04T16:25:56.900Z,102437.56
2022-12-04T16:28:24.524Z,102429.09
2022-12-04T16:30:52.960Z,102425.75
2022-12-04T16:33:21.728Z,102432.38
2022-12-04T16:35:49.483Z,102425.78
2022-12-04T16:38:17.780Z,102429.84
2022-12-04T16:40:46.276Z,102433.88
2022-12-04T16:43:15.558Z,102429.56
2022-12-04T16:45:46.350Z,102417.00
2022-12-04T16:48:15.152Z,102416.06
2022-12-04T16:50:44.366Z,102417.75
2022-12-04T16:53:16.329Z,102420.09
2022-12-04T16:55:46.058Z,102402.34
2022-12-04T16:58:13.893Z,102426.53
2022-12-04T17:00:43.858Z,102420.81
2022-12-04T17:03:18.500Z,102423.19
2022-12-04T17:05:47.317Z,102423.00
2022-12-04T17:08:14.709Z,102423.69
2022-12-04T17:10:42.105Z,102426.25
2022-12-04T17:13:09.369Z,102428.66
2022-12-04T17:15:36.630Z,102432.75
2022-12-04T17:18:09.073Z,102434.38
2022-12-04T17:20:41.256Z,102430.16
2022-12-04T17:23:14.153Z,102434.38
2022-12-04T17:25:41.947Z,102422.69
2022-12-04T17:28:09.347Z,102431.97
2022-12-04T17:30:36.757Z,102425.97
2022-12-04T17:33:04.524Z,102422.56
2022-12-04T17:35:31.961Z,102419.91
2022-12-04T17:38:04.083Z,102414.06
2022-12-04T17:40:34.599Z,102417.41
2022-12-04T17:43:02.249Z,102423.28
2022-12-04T17:45:29.550Z,102417.41
2022-12-04T17:48:04.752Z,102409.91
2022-12-04T17:50:32.134Z,102414.78
2022-12-04T17:52:59.519Z,102408.81
2022-12-04T17:55:31.361Z,102402.19
2022-12-04T17:58:01.364Z,102412.09
2022-12-04T18:00:28.797Z,102401.19
2022-12-04T18:02:56.396Z,102399.50
2022-12-04T18:05:24.036Z,102415.13
2022-12-04T18:07:51.291Z,102383.59
2022-12-04T18:10:18.574Z,102401.28
2022-12-04T18:12:46.038Z,102406.16
2022-12-04T18:15:14.869Z,102406.16
2022-12-04T18:17:42.227Z,102401.09
2022-12-04T18:20:10.360Z,102395.31
2022-12-04T18:22:37.983Z,102400.97
2022-12-04T18:25:07.512Z,102399.13
2022-12-04T18:27:38.970Z,102395.72
2022-12-04T18:30:11.536Z,102397.50
2022-12-04T18:32:40.396Z,102398.34
2022-12-04T18:35:10.348Z,102394.88
2022-12-04T18:37:37.626Z,102403.06
2022-12-04T18:40:07.264Z,102389.78
2022-12-04T18:42:34.848Z,102398.00
2022-12-04T18:45:02.328Z,102381.38
2022-12-04T18:47:31.220Z,102392.09
2022-12-04T18:50:00.218Z,102376.13
2022-12-04T18:52:27.778Z,102399.59
2022-12-04T18:54:55.107Z,102396.31
2022-12-04T18:57:22.293Z,102394.53
2022-12-04T18:59:49.731Z,102384.53
2022-12-04T19:02:17.271Z,102391.03
2022-12-04T19:04:44.589Z,102373.38
2022-12-04T19:07:13.145Z,102378.53
2022-12-04T19:10:10.058Z,102385.00
2022-12-04T19:12:27.617Z,102372.56
2022-12-04T19:14:54.790Z,102375.97
2022-12-04T19:17:22.639Z,102377.59
2022-12-04T19:19:49.973Z,102373.50
2022-12-04T19:22:22.078Z,102370.25
2022-12-04T19:24:49.379Z,102367.78
2022-12-04T19:27:16.870Z,102376.84
2022-12-04T19:29:44.380Z,102371.97
2022-12-04T19:32:11.950Z,102361.75
2022-12-04T19:34:39.972Z,102359.59
2022-12-04T19:37:07.437Z,102365.38
2022-12-04T19:39:36.269Z,102373.75
2022-12-04T19:42:03.672Z,102367.09
2022-12-04T19:47:19.080Z,102348.00
2022-12-04T19:49:46.840Z,102358.75
2022-12-04T19:52:14.163Z,102353.78
2022-12-04T19:54:42.933Z,102353.78
2022-12-04T19:57:10.368Z,102352.88
2022-12-04T19:59:41.771Z,102348.72
2022-12-04T20:02:12.288Z,102355.41
2022-12-04T20:04:39.851Z,102356.03
2022-12-04T20:07:07.083Z,102362.75
2022-12-04T20:09:34.526Z,102361.06
2022-12-04T20:12:03.348Z,102345.25
2022-12-04T20:14:30.606Z,102356.13
2022-12-04T20:16:58.661Z,102347.00
2022-12-04T20:19:26.102Z,102354.34
2022-12-04T20:21:59.114Z,102356.88
2022-12-04T20:24:26.924Z,102351.81
2022-12-04T20:26:54.387Z,102355.13
2022-12-04T20:29:23.068Z,102357.59
2022-12-04T20:31:50.275Z,102352.66
2022-12-04T20:34:19.541Z,102341.78
2022-12-04T20:36:48.286Z,102349.31
2022-12-04T20:39:16.514Z,102351.78
2022-12-04T20:41:44.045Z,102350.94
2022-12-04T20:44:14.652Z,102327.28
2022-12-04T20:46:43.395Z,102350.88
2022-12-04T20:49:20.583Z,102357.59
2022-12-04T20:51:50.468Z,102351.94
2022-12-04T20:54:19.583Z,102356.03
2022-12-04T20:56:49.019Z,102338.53
2022-12-04T20:59:18.751Z,102329.53
2022-12-04T21:01:49.170Z,102349.31
2022-12-04T21:04:18.076Z,102348.34
2022-12-04T21:06:47.170Z,102349.09
2022-12-04T21:09:16.599Z,102339.50
2022-12-04T21:11:46.568Z,102345.72
2022-12-04T21:14:35.327Z,102330.53
2022-12-04T21:17:06.131Z,102347.22
2022-12-04T21:19:33.335Z,102348.81
2022-12-04T21:22:00.507Z,102347.91
2022-12-04T21:24:28.792Z,102347.13
2022-12-04T21:26:56.713Z,102342.19
2022-12-04T21:29:24.071Z,102338.81
2022-12-04T21:31:51.401Z,102342.97
2022-12-04T21:34:20.250Z,102337.09
2022-12-04T21:36:47.768Z,102341.25
2022-12-04T21:39:15.291Z,102332.88
2022-12-04T21:42:01.136Z,102329.53
2022-12-04T21:44:28.495Z,102326.91
2022-12-04T21:46:56.025Z,102320.31
2022-12-04T21:49:24.688Z,102318.66
2022-12-04T21:51:59.469Z,102311.16
2022-12-04T21:54:27.895Z,102312.84
2022-12-04T21:56:56.183Z,102314.41
2022-12-04T21:59:23.546Z,102308.47
2022-12-04T22:01:50.812Z,102310.16
2022-12-04T22:04:18.221Z,102310.09
2022-12-04T22:06:47.398Z,102301.06
2022-12-04T22:09:14.949Z,102301.03
2022-12-04T22:11:42.912Z,102300.22
2022-12-04T22:14:11.469Z,102296.03
2022-12-04T22:16:42.665Z,102290.25
2022-12-04T22:19:11.417Z,102299.41
2022-12-04T22:21:39.739Z,102293.63
2022-12-04T22:24:28.509Z,102291.88
2022-12-04T22:26:55.860Z,102287.69
2022-12-04T22:32:10.437Z,102283.53
2022-12-04T22:34:40.832Z,102279.25
2022-12-04T22:37:08.503Z,102278.34
2022-12-04T22:39:50.029Z,102279.13
2022-12-04T22:42:20.851Z,102270.84
2022-12-04T22:44:48.148Z,102265.00
2022-12-04T22:47:15.429Z,102269.94
2022-12-04T22:49:42.604Z,102276.41
2022-12-04T22:52:09.808Z,102270.63
2022-12-04T22:54:37.017Z,102278.09
2022-12-04T22:57:05.842Z,102274.78
2022-12-04T22:59:33.901Z,102269.00
2022-12-04T23:02:01.311Z,102279.72
2022-12-04T23:04:29.182Z,102263.84
2022-12-04T23:06:56.529Z,102274.47
2022-12-04T23:09:23.854Z,102275.19
2022-12-04T23:11:52.145Z,102277.59
2022-12-04T23:14:22.018Z,102273.00
2022-12-04T23:16:49.867Z,102275.69
2022-12-04T23:19:18.949Z,102274.09
2022-12-04T23:21:47.950Z,102259.75
2022-12-04T23:24:18.171Z,102279.72
2022-12-04T23:26:47.151Z,102262.22
2022-12-04T23:29:36.943Z,102274.63
2022-12-04T23:32:03.478Z,102278.03
2022-12-04T23:34:30.959Z,102265.59
2022-12-04T23:36:58.287Z,102262.22
2022-12-04T23:39:25.533Z,102264.81
2022-12-04T23:41:52.718Z,102260.66
2022-12-04T23:44:19.645Z,102254.03
2022-12-04T23:46:46.878Z,102243.13
2022-12-04T23:49:15.494Z,102245.00
2022-12-04T23:51:42.822Z,102243.44
2022-12-04T23:54:10.501Z,102244.28
2022-12-04T23:56:37.775Z,102232.72
2022-12-04T23:59:05.087Z,102223.53
